^^
Station Historical Data
Daily Summary for January 9, 2018 Units:  Metric    English   Both
« Previous Day
Next Day »
Daily Weekly Monthly Yearly Custom
  High: Low: Average:
Temperature: -17.8 °C 14.4 °C 20.8 °C
Dew Point: -17.8 °C -11.5 °C 2.6 °C
Humidity: Humidity% 5% 37%
Wind Speed: 0km/h 0km/h 12.9km/h
Wind Gust: 0km/h - -
Wind- - SW
Pressure: 0 hPa 1008.7 hPa -
Precipitation: 0 mm    
Historical Graphs
 
 
Tabular Data for January 9, 2018
Time Temperature Dew Point Pressure Wind Wind Speed Wind Gust Humidity Rainfall Rate (Hourly) solar Conditions
-17.8 °C -17.8 °C 0 hPa Calm     Humidity% 0 mm SolarRadiationWatts/m^2 W/m2 Conditions
01:10 17.9 °C 5.8 °C 1012.4 hPa SSW 19.5 km/h 25.7 km/h 45% 0 mm 0.0 W/m2
01:20 17.6 °C 5.8 °C 1012.4 hPa SSW 24.1 km/h 27.4 km/h 46% 0 mm 0.0 W/m2
02:31 16.4 °C 5.9 °C 1011.7 hPa SSW 13 km/h 24.1 km/h 50% 0 mm 0.0 W/m2
02:35 16.4 °C 5.9 °C 1011.7 hPa SSW 16.3 km/h 24.1 km/h 50% 0 mm 0.0 W/m2
02:45 16.3 °C 5.9 °C 1011.7 hPa SSW 11.1 km/h 19.3 km/h 50% 0 mm 0.0 W/m2
03:00 16.1 °C 6 °C 1011.4 hPa SSW 17.7 km/h 19.3 km/h 51% 0 mm 0.0 W/m2
03:11 16.2 °C 5.8 °C 1011.4 hPa SSW 19.5 km/h 20.9 km/h 50% 0 mm 0.0 W/m2
03:16 16.3 °C 5.9 °C 1011.4 hPa SW 17.7 km/h 20.9 km/h 50% 0 mm 0.0 W/m2
03:36 16.3 °C 6.1 °C 1011.4 hPa SW 11.1 km/h 14.5 km/h 51% 0 mm 0.0 W/m2
03:46 16.1 °C 6 °C 1011.4 hPa SW 7.9 km/h 16.1 km/h 51% 0 mm 0.0 W/m2
04:11 15.8 °C 6 °C 1011.7 hPa SW 13 km/h 14.5 km/h 52% 0 mm 0.0 W/m2
04:16 15.7 °C 6.1 °C 1011.7 hPa SW 13 km/h 16.1 km/h 53% 0 mm 0.0 W/m2
04:27 15.6 °C 6.6 °C 1011.7 hPa SW 13 km/h 19.3 km/h 55% 0 mm 0.0 W/m2
04:41 15.4 °C 6.4 °C 1011.7 hPa SW 14.3 km/h 19.3 km/h 55% 0 mm 0.0 W/m2
04:52 15.3 °C 6.3 °C 1011.7 hPa SW 13 km/h 16.1 km/h 55% 0 mm 0.0 W/m2
05:07 15.2 °C 6.5 °C 1012.1 hPa SW 14.3 km/h 19.3 km/h 56% 0 mm 0.0 W/m2
05:12 15.1 °C 6.4 °C 1012.1 hPa SW 17.7 km/h 19.3 km/h 56% 0 mm 0.0 W/m2
05:17 14.9 °C 6.5 °C 1012.1 hPa SW 13 km/h 17.7 km/h 57% 0 mm 0.0 W/m2
05:27 14.8 °C 6.4 °C 1012.4 hPa SW 11.1 km/h 14.5 km/h 57% 0 mm 0.0 W/m2
05:32 14.7 °C 6.5 °C 1012.4 hPa SW 13 km/h 17.7 km/h 58% 0 mm 0.0 W/m2
05:42 14.7 °C 6.5 °C 1012.4 hPa SW 14.3 km/h 16.1 km/h 58% 0 mm 0.0 W/m2
05:48 14.6 °C 6.4 °C 1012.4 hPa SW 11.1 km/h 14.5 km/h 58% 0 mm 0.0 W/m2
05:52 14.6 °C 6.4 °C 1012.4 hPa SW 7.9 km/h 12.9 km/h 58% 0 mm 0.0 W/m2
06:02 14.5 °C 6.3 °C 1012.8 hPa SW 9.7 km/h 12.9 km/h 58% 0 mm 0.0 W/m2
06:07 14.4 °C 6.2 °C 1012.8 hPa SW 9.7 km/h 11.3 km/h 58% 0 mm 7.0 W/m2
06:22 14.5 °C 6.3 °C 1012.8 hPa SW 7.9 km/h 11.3 km/h 58% 0 mm 18.0 W/m2
06:27 14.6 °C 6.4 °C 1012.8 hPa SW 6.4 km/h 11.3 km/h 58% 0 mm 23.0 W/m2
06:42 14.9 °C 6.5 °C 1012.8 hPa SW 11.1 km/h 14.5 km/h 57% 0 mm 62.0 W/m2
06:48 15.1 °C 6.6 °C 1013.1 hPa SW 9.7 km/h 12.9 km/h 57% 0 mm 77.0 W/m2
06:58 15.3 °C 6.6 °C 1013.4 hPa SW 9.7 km/h 14.5 km/h 56% 0 mm 113.0 W/m2
07:14 15.9 °C 6.6 °C 1013.4 hPa SW 16.3 km/h 16.3 km/h 54% 0 mm 178.0 W/m2
07:20 16.1 °C 6.5 °C 1013.4 hPa SW 11.1 km/h 14.5 km/h 53% 0 mm 199.0 W/m2
07:25 16.1 °C 6.5 °C 1013.4 hPa SW 11.1 km/h 16.1 km/h 53% 0 mm 220.0 W/m2
07:30 16.3 °C 6.4 °C 1013.4 hPa SW 9.7 km/h 12.9 km/h 52% 0 mm 239.0 W/m2
07:41 16.7 °C 6.5 °C 1013.4 hPa SW 11.1 km/h 17.7 km/h 51% 0 mm 269.0 W/m2
07:59 17.2 °C 6.1 °C 1013.4 hPa SW 14.3 km/h 17.7 km/h 48% 0 mm 346.0 W/m2
08:44 18.6 °C 5.8 °C 1013.4 hPa SW 14.3 km/h 14.5 km/h 43% 0 mm 489.0 W/m2
08:59 19.3 °C 5.4 °C 1013.4 hPa SW 13 km/h 17.7 km/h 40% 0 mm 538.0 W/m2
09:29 20.7 °C 4.7 °C 1013.4 hPa SW 11.1 km/h 14.5 km/h 35% 0 mm 635.0 W/m2
09:45 21.1 °C 4.6 °C 1013.4 hPa SW 7.9 km/h 16.1 km/h 34% 0 mm 684.0 W/m2
10:17 22.9 °C 4.9 °C 1013.4 hPa SW 16.3 km/h 17.7 km/h 31% 0 mm 782.0 W/m2
10:31 23.3 °C 4.7 °C 1013.1 hPa SW 13 km/h 16.1 km/h 30% 0 mm 821.0 W/m2
10:48 24 °C 4.4 °C 1013.1 hPa SW 13 km/h 16.1 km/h 28% 0 mm 860.0 W/m2
10:57 24.8 °C 4 °C 1013.1 hPa SW 14.3 km/h 16.1 km/h 26% 0 mm 881.0 W/m2
11:06 25.2 °C 3.8 °C 1012.8 hPa SW 13 km/h 17.7 km/h 25% 0 mm 900.0 W/m2
11:17 25.6 °C 4.1 °C 1012.8 hPa SW 13 km/h 24.1 km/h 25% 0 mm 919.0 W/m2
11:30 26.3 °C 3.5 °C 1012.8 hPa SW 13 km/h 13 km/h 23% 0 mm 940.0 W/m2
11:35 26.5 °C 3.1 °C 1012.8 hPa SW 13 km/h 22.5 km/h 22% 0 mm 947.0 W/m2
11:41 27.2 °C 3 °C 1012.8 hPa SW 9.7 km/h 22.5 km/h 21% 0 mm 958.0 W/m2
11:46 27.1 °C 2.9 °C 1012.4 hPa SW 14.3 km/h 19.3 km/h 21% 0 mm 962.0 W/m2
12:02 27.7 °C 2.7 °C 1012.1 hPa SW 7.9 km/h 19.3 km/h 20% 0 mm 979.0 W/m2
12:13 28.1 °C 3 °C 1012.1 hPa WSW 13 km/h 19.3 km/h 20% 0 mm 990.0 W/m2
12:50 29.7 °C 1.2 °C 1011.7 hPa SW 13 km/h 19.3 km/h 16% 0 mm 1002.0 W/m2
14:12 32 °C -3.4 °C 1010.7 hPa SW 14.3 km/h 24.1 km/h 10% 0 mm 967.0 W/m2
14:26 32.4 °C -6.1 °C 1010.4 hPa SSW 13 km/h 30.6 km/h 8% 0 mm 949.0 W/m2
15:22 33.1 °C -9.3 °C 1010 hPa South 9.7 km/h 17.7 km/h 6% 0 mm 840.0 W/m2
15:55 33.2 °C -11.5 °C 1009.7 hPa South 14.3 km/h 17.7 km/h 5% 0 mm 752.0 W/m2
16:07 33.1 °C -9.3 °C 1009.7 hPa Calm   12.9 km/h 6% 0 mm 719.0 W/m2
16:38 33.6 °C -6.9 °C 1009 hPa South 16.3 km/h 30.6 km/h 7% 0 mm 629.0 W/m2
16:52 33.2 °C -7.2 °C 1009 hPa South 17.7 km/h 17.7 km/h 7% 0 mm 582.0 W/m2
17:03 33.4 °C -9.1 °C 1009 hPa SSW 22.7 km/h 22.7 km/h 6% 0 mm 547.0 W/m2
17:32 33.3 °C -7.2 °C 1008.7 hPa South 20.9 km/h 24.1 km/h 7% 0 mm 443.0 W/m2
17:42 33.2 °C -9.2 °C 1008.7 hPa South 19.5 km/h 22.5 km/h 6% 0 mm 404.0 W/m2
17:52 33.3 °C -7.2 °C 1008.7 hPa South 17.7 km/h 22.5 km/h 7% 0 mm 371.0 W/m2
18:02 33.2 °C -7.2 °C 1008.7 hPa South 13 km/h 20.9 km/h 7% 0 mm 336.0 W/m2
18:56 32.5 °C -6 °C 1008.7 hPa South 9.7 km/h 14.5 km/h 8% 0 mm 118.0 W/m2
Canyon Roadhouse, Fishriver Canyon, Namibia
Compliments of Weather Underground - 2 mb